Weather at Dallas Rehabilitation Institute Heliport

Public forecast

Using degrees Fahrenheit for public forecast. Weather courtesy of forecast.io.

Closest aviation weather report (METAR) to Dallas Rehabilitation Institute Heliport

Closest report is Dallas Love Field, 1.4 nm (2.5 km) E.

2024/05/20 21:53 (retrieved 1 hour ago)

KDAL 202153Z 17013G23KT 10SM CLR 32/18 A2976 RMK AO2 PK WND 18026/2128 SLP068 T03220183

Closest aviation forecast (TAF) to Dallas Rehabilitation Institute Heliport

Closest forecast is Dallas Love Field, 1.4 nm (2.5 km) E.

2024/05/20 21:06 Ammendment (retrieved 2 hours ago)

TAF AMD KDAL 202103Z 2021/2118 17015G25KT P6SM SCT250 FM211000 18016KT P6SM BKN012 FM211600 19016KT P6SM BKN025